Time;durP1;ratioP1;P1;durP2;ratioP2;P2;SDS_P1;SDS_P2;PMS_P1;PMS_P2;Temp;Humidity;BMP_temperature;BMP_pressure;BME280_temperature;BME280_humidity;BME280_pressure;Samples;Min_cycle;Max_cycle;Signal;HPM_P1;HPM_P2
2021/08/15 00:00:18;;;;;;;12.17;9.03;;;23.60;99.90;;;;;;5034297;28;20891;-69
2021/08/15 00:02:45;;;;;;;10.83;8.77;;;23.60;99.90;;;;;;5034264;28;20481;-69
2021/08/15 00:05:12;;;;;;;9.60;8.60;;;23.60;99.90;;;;;;5033988;28;20538;-69
2021/08/15 00:07:41;;;;;;;10.77;9.30;;;23.60;99.90;;;;;;5034149;28;20505;-69
2021/08/15 00:10:09;;;;;;;11.17;9.27;;;23.60;99.90;;;;;;5033863;28;20554;-69
2021/08/15 00:12:37;;;;;;;10.00;9.00;;;23.60;99.90;;;;;;5034187;28;20439;-69
2021/08/15 00:15:04;;;;;;;10.97;9.27;;;23.60;99.90;;;;;;5033785;28;20475;-69
2021/08/15 00:17:31;;;;;;;9.73;8.63;;;23.50;99.90;;;;;;5033900;28;20455;-69
2021/08/15 00:19:58;;;;;;;10.70;9.60;;;23.50;99.90;;;;;;5033103;28;20472;-69
2021/08/15 00:22:25;;;;;;;9.60;8.70;;;23.50;99.90;;;;;;5033920;28;21013;-69
2021/08/15 00:24:53;;;;;;;10.50;8.97;;;23.40;99.90;;;;;;5033825;28;20527;-69
2021/08/15 00:27:20;;;;;;;9.90;8.90;;;23.40;99.90;;;;;;5033888;28;20444;-69
2021/08/15 00:29:47;;;;;;;10.27;9.17;;;23.40;99.90;;;;;;5033779;28;20899;-69
2021/08/15 00:32:14;;;;;;;9.40;8.37;;;23.40;99.90;;;;;;5033925;28;20533;-69
2021/08/15 00:34:40;;;;;;;10.00;8.30;;;23.30;99.90;;;;;;5033547;28;20492;-69
2021/08/15 00:37:07;;;;;;;9.93;8.93;;;23.20;99.90;;;;;;5033407;28;20439;-69
2021/08/15 00:39:34;;;;;;;11.30;8.70;;;23.10;99.90;;;;;;5033452;28;20559;-69
2021/08/15 00:42:03;;;;;;;9.53;8.60;;;23.10;99.90;;;;;;5033793;28;20534;-69
2021/08/15 00:44:30;;;;;;;9.47;8.40;;;23.10;99.90;;;;;;5033617;28;20482;-69
2021/08/15 00:46:58;;;;;;;10.40;9.23;;;23.00;99.90;;;;;;5033519;28;20470;-69
2021/08/15 00:49:25;;;;;;;10.33;8.87;;;23.00;99.90;;;;;;5033603;28;20462;-69
2021/08/15 00:51:52;;;;;;;9.70;8.70;;;22.90;99.90;;;;;;5033531;28;20465;-69
2021/08/15 00:54:19;;;;;;;10.37;9.33;;;22.90;99.90;;;;;;5033551;28;20530;-69
2021/08/15 00:56:49;;;;;;;10.53;9.37;;;22.90;99.90;;;;;;5033395;28;20601;-69
2021/08/15 00:59:18;;;;;;;12.90;10.03;;;22.80;99.90;;;;;;5033451;28;20542;-69
2021/08/15 01:01:45;;;;;;;12.30;10.50;;;22.90;99.90;;;;;;5033532;28;20534;-69
2021/08/15 01:04:12;;;;;;;12.83;10.10;;;22.90;99.90;;;;;;5033450;28;20482;-69
2021/08/15 01:06:39;;;;;;;11.80;10.30;;;22.90;99.90;;;;;;5033339;28;20526;-69
2021/08/15 01:09:06;;;;;;;12.40;10.57;;;22.90;99.90;;;;;;5033389;28;20526;-69
2021/08/15 01:11:35;;;;;;;12.30;10.07;;;22.90;99.90;;;;;;5033501;28;20450;-69
2021/08/15 01:14:02;;;;;;;13.27;9.50;;;22.90;99.90;;;;;;5033341;28;20446;-69
2021/08/15 01:16:31;;;;;;;10.90;9.57;;;23.00;99.90;;;;;;5032831;28;20967;-69
2021/08/15 01:18:58;;;;;;;9.57;8.63;;;23.00;99.90;;;;;;5033547;28;20534;-69
2021/08/15 01:21:24;;;;;;;9.80;8.47;;;22.90;99.90;;;;;;5032961;28;20473;-69
2021/08/15 01:23:52;;;;;;;10.37;9.17;;;22.80;99.90;;;;;;5033205;28;20484;-69
2021/08/15 01:26:21;;;;;;;10.47;8.90;;;22.70;99.90;;;;;;5032952;28;20444;-69
2021/08/15 01:28:50;;;;;;;10.10;9.00;;;22.70;99.90;;;;;;5033173;28;20449;-69
2021/08/15 01:31:18;;;;;;;11.40;9.00;;;22.60;99.90;;;;;;5035248;28;20553;-69
2021/08/15 01:33:45;;;;;;;12.07;9.97;;;22.60;99.90;;;;;;5037119;28;20440;-69
2021/08/15 01:36:14;;;;;;;10.70;9.60;;;22.60;99.90;;;;;;5036777;28;20442;-69
2021/08/15 01:38:43;;;;;;;13.43;10.60;;;22.60;99.90;;;;;;5036956;28;21016;-69
2021/08/15 01:41:10;;;;;;;13.37;10.30;;;22.60;99.90;;;;;;5036689;28;20466;-69
2021/08/15 01:43:50;;;;;;;11.93;10.20;;;22.60;99.90;;;;;;5036927;28;20478;-69
2021/08/15 01:46:17;;;;;;;10.17;9.13;;;22.60;99.90;;;;;;5036807;28;20797;-69
2021/08/15 01:48:44;;;;;;;14.30;10.47;;;22.60;99.90;;;;;;5036892;28;20446;-69
2021/08/15 01:51:11;;;;;;;13.13;11.17;;;22.60;99.90;;;;;;5036852;28;20473;-69
2021/08/15 01:53:38;;;;;;;13.37;9.93;;;22.60;99.90;;;;;;5036682;28;20438;-69
2021/08/15 01:56:05;;;;;;;12.07;10.50;;;22.60;99.90;;;;;;5036548;28;20544;-69
2021/08/15 01:58:32;;;;;;;12.00;9.73;;;22.50;99.90;;;;;;5036756;28;20537;-69
2021/08/15 02:01:00;;;;;;;11.23;10.10;;;22.40;99.90;;;;;;5036318;28;20561;-69
2021/08/15 02:03:27;;;;;;;12.00;10.80;;;22.40;99.90;;;;;;5036356;28;20485;-69
2021/08/15 02:05:54;;;;;;;13.17;11.77;;;22.30;99.90;;;;;;5036242;28;20446;-69
2021/08/15 02:08:23;;;;;;;13.87;10.70;;;22.20;99.90;;;;;;5036471;28;20522;-69
2021/08/15 02:10:52;;;;;;;12.33;10.90;;;22.30;99.90;;;;;;5036489;28;20467;-69
2021/08/15 02:13:20;;;;;;;14.43;12.40;;;22.30;99.90;;;;;;5036248;28;20453;-69
2021/08/15 02:15:47;;;;;;;14.60;12.07;;;22.30;99.90;;;;;;5035979;28;20560;-69
2021/08/15 02:18:17;;;;;;;13.33;11.43;;;22.20;99.90;;;;;;5036368;28;20554;-69
2021/08/15 02:20:44;;;;;;;14.73;11.87;;;22.20;99.90;;;;;;5036250;28;20467;-70
2021/08/15 02:23:11;;;;;;;14.97;12.40;;;22.10;99.90;;;;;;5036194;28;20836;-69
2021/08/15 02:25:38;;;;;;;12.87;11.57;;;22.10;99.90;;;;;;5035893;28;20800;-69
2021/08/15 02:28:06;;;;;;;13.20;11.63;;;22.10;99.90;;;;;;5036135;28;20542;-69
2021/08/15 02:30:34;;;;;;;13.23;11.10;;;22.20;99.90;;;;;;5036168;28;20554;-69
2021/08/15 02:33:01;;;;;;;14.67;11.30;;;22.10;99.90;;;;;;5036123;28;20469;-69
2021/08/15 02:35:31;;;;;;;12.50;11.00;;;22.10;99.90;;;;;;5035800;28;20453;-69
2021/08/15 02:37:59;;;;;;;13.83;11.13;;;22.10;99.90;;;;;;5035989;28;20544;-69
2021/08/15 02:40:26;;;;;;;12.50;11.10;;;22.10;99.90;;;;;;5035949;28;20470;-69
2021/08/15 02:42:55;;;;;;;13.70;12.20;;;22.10;99.90;;;;;;5034982;28;20451;-69
2021/08/15 02:45:24;;;;;;;12.50;11.20;;;22.10;99.90;;;;;;5035668;28;20453;-69
2021/08/15 02:47:51;;;;;;;11.70;10.27;;;22.10;99.90;;;;;;5035718;28;20447;-69
2021/08/15 02:50:18;;;;;;;12.33;10.50;;;22.00;99.90;;;;;;5035748;28;20546;-69
2021/08/15 02:52:47;;;;;;;13.00;10.73;;;21.90;99.90;;;;;;5035688;28;20452;-69
2021/08/15 02:55:13;;;;;;;13.77;10.60;;;21.80;99.90;;;;;;5035471;28;20447;-70
2021/08/15 02:57:40;;;;;;;11.47;9.80;;;21.80;99.90;;;;;;5035636;28;20446;-69
2021/08/15 03:00:10;;;;;;;12.40;10.97;;;21.80;99.90;;;;;;5035499;28;20476;-69
2021/08/15 03:02:37;;;;;;;14.73;11.30;;;21.80;99.90;;;;;;5035526;28;20526;-69
2021/08/15 03:05:05;;;;;;;13.13;10.57;;;21.80;99.90;;;;;;5035252;28;21022;-69
2021/08/15 03:07:32;;;;;;;12.57;11.00;;;21.80;99.90;;;;;;5035402;28;20469;-69
2021/08/15 03:10:00;;;;;;;12.13;10.63;;;21.80;99.90;;;;;;5035024;28;20561;-69
2021/08/15 03:12:27;;;;;;;11.97;10.67;;;21.80;99.90;;;;;;5035089;28;20456;-69
2021/08/15 03:14:54;;;;;;;14.00;11.03;;;21.80;99.90;;;;;;5035076;28;20446;-69
2021/08/15 03:17:21;;;;;;;13.87;11.10;;;21.70;99.90;;;;;;5034930;28;20534;-69
2021/08/15 03:19:48;;;;;;;12.10;9.30;;;21.70;99.90;;;;;;5035464;28;20786;-69
2021/08/15 03:22:15;;;;;;;11.13;10.03;;;21.80;99.90;;;;;;5035114;28;20474;-69
2021/08/15 03:24:42;;;;;;;11.97;10.80;;;21.80;99.90;;;;;;5034821;28;21060;-69
2021/08/15 03:27:10;;;;;;;13.93;11.60;;;21.80;99.90;;;;;;5034906;28;21039;-69
2021/08/15 03:29:36;;;;;;;12.10;10.40;;;21.80;99.90;;;;;;5034864;28;20476;-69
2021/08/15 03:32:04;;;;;;;11.40;9.97;;;21.80;99.90;;;;;;5034997;28;20538;-69
2021/08/15 03:34:31;;;;;;;12.97;11.63;;;21.70;99.90;;;;;;5035178;28;20438;-69
2021/08/15 03:36:58;;;;;;;15.93;11.77;;;21.70;99.90;;;;;;5034712;28;20458;-69
2021/08/15 03:39:29;;;;;;;12.40;10.70;;;21.70;99.90;;;;;;5034724;28;20478;-69
2021/08/15 03:41:58;;;;;;;13.47;11.13;;;21.70;99.90;;;;;;5034811;28;20439;-69
2021/08/15 03:44:27;;;;;;;13.70;11.80;;;21.70;99.90;;;;;;5034666;28;20540;-69
2021/08/15 03:46:54;;;;;;;11.43;10.23;;;21.60;99.90;;;;;;5034555;28;20529;-69
2021/08/15 03:49:21;;;;;;;11.33;10.13;;;21.60;99.90;;;;;;5034547;28;20452;-69
2021/08/15 03:51:48;;;;;;;12.00;10.60;;;21.60;99.90;;;;;;5034704;28;20448;-69
2021/08/15 03:54:17;;;;;;;12.73;10.67;;;21.60;99.90;;;;;;5034541;28;20449;-69
2021/08/15 03:56:44;;;;;;;14.53;11.70;;;21.50;99.90;;;;;;5034078;28;20458;-69
2021/08/15 03:59:11;;;;;;;11.70;10.50;;;21.60;99.90;;;;;;5034385;28;20800;-69
2021/08/15 04:01:39;;;;;;;11.90;10.67;;;21.50;99.90;;;;;;5034492;28;20446;-69
2021/08/15 04:04:06;;;;;;;12.93;11.03;;;21.60;99.90;;;;;;5034438;28;20991;-69
2021/08/15 04:06:36;;;;;;;11.03;9.83;;;21.60;99.90;;;;;;5034188;28;20449;-69
2021/08/15 04:09:03;;;;;;;12.80;10.77;;;21.60;99.90;;;;;;5034154;28;20443;-69
2021/08/15 04:11:30;;;;;;;10.60;9.50;;;21.50;99.90;;;;;;5034323;28;20553;-69
2021/08/15 04:13:57;;;;;;;13.97;10.80;;;21.50;99.90;;;;;;5034199;28;20537;-69
2021/08/15 04:16:23;;;;;;;13.83;11.97;;;21.40;99.90;;;;;;5033910;28;20459;-70
2021/08/15 04:18:52;;;;;;;15.60;11.17;;;21.30;99.90;;;;;;5034021;28;20452;-69
2021/08/15 04:21:18;;;;;;;13.50;12.10;;;21.30;99.90;;;;;;5034042;28;20478;-69
2021/08/15 04:23:45;;;;;;;15.13;12.50;;;21.20;99.90;;;;;;5033886;28;20485;-69
2021/08/15 04:26:12;;;;;;;14.93;12.83;;;21.30;99.90;;;;;;5033856;28;20442;-69
2021/08/15 04:28:39;;;;;;;12.70;10.33;;;21.40;99.90;;;;;;5033977;28;20532;-69
2021/08/15 04:31:05;;;;;;;12.30;11.00;;;21.40;99.90;;;;;;5034599;28;20556;-69
2021/08/15 04:33:32;;;;;;;12.23;10.40;;;21.40;99.90;;;;;;5033754;28;20954;-69
2021/08/15 04:36:00;;;;;;;12.50;11.20;;;21.40;99.90;;;;;;5033565;28;20450;-69
2021/08/15 04:38:27;;;;;;;13.27;11.17;;;21.30;99.90;;;;;;5033609;28;20537;-69
2021/08/15 04:40:54;;;;;;;13.03;10.80;;;21.30;99.90;;;;;;5033798;28;20470;-69
2021/08/15 04:43:21;;;;;;;14.57;12.07;;;21.30;99.90;;;;;;5033606;28;20445;-69
2021/08/15 04:45:48;;;;;;;11.60;10.37;;;21.10;99.90;;;;;;5033350;28;20568;-69
2021/08/15 04:48:16;;;;;;;14.00;11.50;;;21.20;99.90;;;;;;5033675;28;20528;-69
2021/08/15 04:50:43;;;;;;;11.33;10.13;;;21.30;99.90;;;;;;5033369;28;21076;-69
2021/08/15 04:53:12;;;;;;;12.23;10.93;;;21.30;99.90;;;;;;5033633;28;20441;-69
2021/08/15 04:55:38;;;;;;;13.47;11.40;;;21.20;99.90;;;;;;5033426;28;20442;-69
2021/08/15 04:58:06;;;;;;;14.73;11.27;;;21.20;99.90;;;;;;5033401;28;20972;-69
2021/08/15 05:00:33;;;;;;;12.37;11.07;;;21.20;99.90;;;;;;5033378;28;20918;-69
2021/08/15 05:03:00;;;;;;;12.67;9.80;;;21.30;99.90;;;;;;5033295;28;20449;-69
2021/08/15 05:05:27;;;;;;;12.10;10.57;;;21.20;99.90;;;;;;5035417;28;20492;-69
2021/08/15 05:07:54;;;;;;;13.93;11.47;;;21.20;99.90;;;;;;5040127;28;20873;-69
2021/08/15 05:10:22;;;;;;;13.30;10.00;;;21.20;99.90;;;;;;5040075;28;20465;-69
2021/08/15 05:12:49;;;;;;;12.93;10.70;;;21.30;99.90;;;;;;5039961;28;20454;-69
2021/08/15 05:15:15;;;;;;;12.77;10.80;;;21.30;99.90;;;;;;5040055;28;20477;-69
2021/08/15 05:17:42;;;;;;;14.70;11.63;;;21.40;99.90;;;;;;5039669;28;20465;-69
2021/08/15 05:20:10;;;;;;;11.20;10.00;;;21.40;99.90;;;;;;5039640;28;20552;-69
2021/08/15 05:22:37;;;;;;;12.33;10.67;;;21.30;99.90;;;;;;5039953;28;20477;-69
2021/08/15 05:25:05;;;;;;;11.07;9.97;;;21.40;99.90;;;;;;5039656;28;20496;-69
2021/08/15 05:27:33;;;;;;;11.30;10.10;;;21.30;99.90;;;;;;5040109;28;20448;-69
2021/08/15 05:30:00;;;;;;;12.57;11.10;;;21.20;99.90;;;;;;5039781;28;20501;-69
2021/08/15 05:32:28;;;;;;;14.87;12.10;;;21.30;99.90;;;;;;5039603;28;20458;-69
2021/08/15 05:34:55;;;;;;;14.47;11.80;;;21.10;99.90;;;;;;5039649;28;20450;-70
2021/08/15 05:37:22;;;;;;;18.60;12.57;;;21.10;99.90;;;;;;5039790;28;20445;-69
2021/08/15 05:39:48;;;;;;;14.33;12.83;;;21.00;99.90;;;;;;5039812;28;20476;-69
2021/08/15 05:42:16;;;;;;;17.67;13.63;;;21.00;99.90;;;;;;5039850;28;20453;-69
2021/08/15 05:44:44;;;;;;;15.40;12.43;;;21.00;99.90;;;;;;5039606;28;20983;-69
2021/08/15 05:47:11;;;;;;;17.07;13.90;;;21.10;99.90;;;;;;5039722;28;20453;-69
2021/08/15 05:49:38;;;;;;;16.50;13.63;;;21.10;99.90;;;;;;5039682;28;20473;-69
2021/08/15 05:52:05;;;;;;;14.53;12.70;;;21.20;99.90;;;;;;5039785;28;20548;-69
2021/08/15 05:54:32;;;;;;;15.03;12.93;;;21.20;99.90;;;;;;5039662;28;20442;-69
2021/08/15 05:56:59;;;;;;;16.70;13.33;;;21.20;99.90;;;;;;5039424;28;20446;-69
2021/08/15 05:59:26;;;;;;;13.83;12.23;;;21.30;99.90;;;;;;5039571;28;20551;-69
2021/08/15 06:01:55;;;;;;;15.30;12.63;;;21.50;99.90;;;;;;5039620;28;20492;-69
2021/08/15 06:04:21;;;;;;;15.60;12.60;;;21.60;99.90;;;;;;5039518;28;20482;-69
2021/08/15 06:06:51;;;;;;;15.13;13.03;;;21.60;99.90;;;;;;5039448;28;20446;-69
2021/08/15 06:09:18;;;;;;;14.87;12.77;;;21.60;99.90;;;;;;5039461;28;20488;-69
2021/08/15 06:11:46;;;;;;;14.57;12.50;;;21.70;99.90;;;;;;5039984;28;20936;-69
2021/08/15 06:14:14;;;;;;;16.20;13.17;;;21.70;99.90;;;;;;5039451;28;20470;-69
2021/08/15 06:16:41;;;;;;;17.57;13.17;;;21.70;99.90;;;;;;5037297;28;20446;-69
2021/08/15 06:19:09;;;;;;;14.80;13.03;;;21.90;99.90;;;;;;5036050;28;20448;-69
2021/08/15 06:21:36;;;;;;;12.80;11.50;;;21.90;99.90;;;;;;5036434;28;20503;-70
2021/08/15 06:24:03;;;;;;;14.97;13.40;;;22.00;99.90;;;;;;5036015;28;20449;-69
2021/08/15 06:26:30;;;;;;;14.00;12.43;;;21.90;99.90;;;;;;5035844;28;20451;-70
2021/08/15 06:28:57;;;;;;;13.80;12.27;;;21.80;99.90;;;;;;5036226;28;20446;-69
2021/08/15 06:31:24;;;;;;;17.27;13.57;;;21.70;99.90;;;;;;5036156;28;20552;-69
2021/08/15 06:33:51;;;;;;;15.37;13.40;;;21.70;99.90;;;;;;5036104;28;20446;-69
2021/08/15 06:36:19;;;;;;;15.40;12.20;;;21.70;99.90;;;;;;5035830;28;20445;-69
2021/08/15 06:38:46;;;;;;;14.13;12.67;;;21.60;99.90;;;;;;5036001;28;20442;-69
2021/08/15 06:41:13;;;;;;;16.80;14.17;;;21.70;99.90;;;;;;5035902;28;20884;-69
2021/08/15 06:43:39;;;;;;;17.20;13.73;;;21.80;99.90;;;;;;5035928;28;20533;-69
2021/08/15 06:46:06;;;;;;;14.97;13.30;;;21.90;99.90;;;;;;5035638;28;20483;-69
2021/08/15 06:48:33;;;;;;;16.80;13.37;;;21.90;99.90;;;;;;5035832;28;20470;-69
2021/08/15 06:51:00;;;;;;;15.60;12.87;;;22.00;99.90;;;;;;5035473;28;20467;-69
2021/08/15 06:53:29;;;;;;;15.00;13.43;;;22.10;99.90;;;;;;5035773;28;20486;-69
2021/08/15 06:55:58;;;;;;;15.80;13.73;;;22.30;99.90;;;;;;5035390;28;20530;-69
2021/08/15 06:58:24;;;;;;;16.03;13.20;;;22.30;99.90;;;;;;5035390;28;21223;-69
2021/08/15 07:00:51;;;;;;;15.00;13.07;;;22.40;99.90;;;;;;5035645;28;20474;-69
2021/08/15 07:03:18;;;;;;;16.53;13.43;;;22.50;99.90;;;;;;5035553;28;20501;-69
2021/08/15 07:05:45;;;;;;;13.83;12.23;;;22.60;99.90;;;;;;5035095;28;20561;-69
2021/08/15 07:08:12;;;;;;;15.43;13.30;;;22.60;99.90;;;;;;5035352;28;20530;-69
2021/08/15 07:10:40;;;;;;;16.17;14.47;;;22.70;99.90;;;;;;5035361;28;20478;-69
2021/08/15 07:13:08;;;;;;;16.47;12.60;;;22.70;99.90;;;;;;5035321;28;20529;-69
2021/08/15 07:15:36;;;;;;;16.13;13.50;;;22.70;99.90;;;;;;5034898;28;20447;-69
2021/08/15 07:18:03;;;;;;;14.60;12.90;;;22.60;99.90;;;;;;5035063;28;20819;-69
2021/08/15 07:20:30;;;;;;;16.70;13.23;;;22.70;99.90;;;;;;5035123;28;20466;-69
2021/08/15 07:22:57;;;;;;;15.13;12.50;;;22.70;99.90;;;;;;5035117;28;20539;-69
2021/08/15 07:25:28;;;;;;;15.20;12.90;;;22.70;99.90;;;;;;5034851;28;20852;-69
2021/08/15 07:27:57;;;;;;;15.27;13.27;;;22.80;99.90;;;;;;5034738;28;20455;-69
2021/08/15 07:30:23;;;;;;;13.77;12.37;;;22.80;99.90;;;;;;5034931;28;20469;-69
2021/08/15 07:32:53;;;;;;;14.40;11.87;;;22.90;99.90;;;;;;5035033;28;20533;-69
2021/08/15 07:35:20;;;;;;;14.73;12.57;;;22.90;99.90;;;;;;5034468;28;20538;-69
2021/08/15 07:37:46;;;;;;;14.57;12.13;;;23.00;99.90;;;;;;5034618;28;20448;-69
2021/08/15 07:40:15;;;;;;;13.47;12.07;;;23.20;99.90;;;;;;5034784;28;20486;-69
2021/08/15 07:42:42;;;;;;;12.60;11.30;;;23.10;99.90;;;;;;5034566;28;20925;-69
2021/08/15 07:45:11;;;;;;;13.23;11.83;;;23.10;99.90;;;;;;5034223;28;20487;-69
2021/08/15 07:47:38;;;;;;;13.50;11.20;;;23.20;99.90;;;;;;5034711;28;20443;-69
2021/08/15 07:50:06;;;;;;;11.80;10.33;;;23.20;99.90;;;;;;5034666;28;20471;-69
2021/08/15 07:52:33;;;;;;;11.93;10.57;;;23.30;99.90;;;;;;5034877;28;20466;-69
2021/08/15 07:55:00;;;;;;;12.40;10.50;;;23.40;99.90;;;;;;5034374;28;20527;-69
2021/08/15 07:57:27;;;;;;;12.53;11.20;;;23.40;99.90;;;;;;5034540;28;20470;-69
2021/08/15 07:59:55;;;;;;;12.10;10.37;;;23.30;99.90;;;;;;5034435;28;20471;-69
2021/08/15 08:02:23;;;;;;;12.33;11.20;;;23.50;99.90;;;;;;5034465;28;20547;-69
2021/08/15 08:04:51;;;;;;;13.57;11.70;;;23.50;99.90;;;;;;5033883;28;20534;-69
2021/08/15 08:07:19;;;;;;;13.67;10.97;;;23.60;99.90;;;;;;5034323;28;20451;-69
2021/08/15 08:09:47;;;;;;;13.30;11.73;;;23.60;99.90;;;;;;5034201;28;20472;-69
2021/08/15 08:12:14;;;;;;;12.10;10.80;;;23.70;99.90;;;;;;5034204;28;20460;-69
2021/08/15 08:14:41;;;;;;;13.20;11.87;;;23.80;99.90;;;;;;5034197;28;20873;-69
2021/08/15 08:17:08;;;;;;;12.73;11.43;;;24.10;99.90;;;;;;5033931;28;20466;-69
2021/08/15 08:19:36;;;;;;;12.83;11.53;;;24.60;99.90;;;;;;5033874;28;20501;-69
2021/08/15 08:22:04;;;;;;;12.43;11.13;;;25.20;99.90;;;;;;5034151;28;20525;-69
2021/08/15 08:24:30;;;;;;;15.00;11.57;;;25.50;99.90;;;;;;5034051;28;20998;-69
2021/08/15 08:26:57;;;;;;;11.50;10.50;;;26.10;99.90;;;;;;5033646;28;20894;-69
2021/08/15 08:29:24;;;;;;;11.10;10.00;;;26.30;99.90;;;;;;5034072;28;20438;-69
2021/08/15 08:31:51;;;;;;;12.33;11.13;;;26.40;99.90;;;;;;5033837;28;20449;-69
2021/08/15 08:34:18;;;;;;;12.17;10.97;;;26.30;99.90;;;;;;5033672;28;20534;-69
2021/08/15 08:36:46;;;;;;;14.47;12.67;;;26.20;99.90;;;;;;5033584;28;20443;-69
2021/08/15 08:39:13;;;;;;;12.70;10.80;;;26.10;99.90;;;;;;5033618;28;20980;-70
2021/08/15 08:41:40;;;;;;;13.13;11.83;;;25.90;99.90;;;;;;5033274;28;20486;-69
2021/08/15 08:44:09;;;;;;;13.13;11.53;;;25.70;99.90;;;;;;5033647;28;20534;-69
2021/08/15 08:46:37;;;;;;;12.73;11.43;;;25.60;99.90;;;;;;5033443;28;20478;-69
2021/08/15 08:49:04;;;;;;;11.60;10.40;;;25.70;99.90;;;;;;5033640;28;20533;-70
2021/08/15 08:51:31;;;;;;;14.63;11.07;;;25.70;99.90;;;;;;5033658;28;20896;-70
2021/08/15 08:54:02;;;;;;;12.77;11.47;;;25.70;99.90;;;;;;5033495;28;20442;-70
2021/08/15 08:56:29;;;;;;;12.80;11.50;;;25.80;99.90;;;;;;5033239;28;20450;-69
2021/08/15 08:58:55;;;;;;;13.13;11.73;;;26.00;99.90;;;;;;5033540;28;20775;-70
2021/08/15 09:01:22;;;;;;;13.43;12.07;;;26.20;99.90;;;;;;5033487;28;20557;-70
2021/08/15 09:03:49;;;;;;;11.90;10.57;;;26.40;99.90;;;;;;5033569;28;20482;-70
2021/08/15 09:06:20;;;;;;;11.70;10.50;;;26.90;99.90;;;;;;5033322;28;20566;-69
2021/08/15 09:08:47;;;;;;;12.10;10.90;;;27.30;99.90;;;;;;5033420;28;20918;-70
2021/08/15 09:11:17;;;;;;;11.50;10.37;;;28.20;99.90;;;;;;5033387;28;20836;-70
2021/08/15 09:13:46;;;;;;;12.00;10.80;;;29.30;99.90;;;;;;5033289;28;21004;-70
2021/08/15 09:16:12;;;;;;;13.67;10.30;;;30.80;98.20;;;;;;5033256;28;20457;-70
2021/08/15 09:18:39;;;;;;;11.63;10.53;;;32.10;95.00;;;;;;5033308;28;20443;-70
2021/08/15 09:21:06;;;;;;;11.70;10.70;;;33.90;90.00;;;;;;5033389;28;20477;-70
2021/08/15 09:23:35;;;;;;;11.17;10.17;;;34.70;82.70;;;;;;5033360;28;20450;-70
2021/08/15 09:26:18;;;;;;;11.43;10.40;;;35.10;79.60;;;;;;5032886;28;20479;-70
2021/08/15 09:28:46;;;;;;;10.37;9.37;;;36.40;75.70;;;;;;5033338;28;20450;-70
2021/08/15 09:31:19;;;;;;;10.90;9.90;;;37.90;65.50;;;;;;5033313;28;20474;-71
2021/08/15 09:33:46;;;;;;;11.50;10.40;;;37.50;62.60;;;;;;5033225;28;20533;-71
2021/08/15 09:36:13;;;;;;;10.63;9.73;;;37.70;60.80;;;;;;5032911;28;20446;-71
2021/08/15 09:38:44;;;;;;;10.77;9.83;;;38.60;59.80;;;;;;5033044;28;21037;-71
2021/08/15 09:41:24;;;;;;;11.13;10.23;;;38.40;58.20;;;;;;5033191;28;20470;-70
2021/08/15 09:44:21;;;;;;;11.30;10.20;;;38.60;56.50;;;;;;5033222;28;20455;-70
2021/08/15 09:47:07;;;;;;;11.00;10.00;;;38.60;57.00;;;;;;5032730;28;21033;-71
2021/08/15 09:49:36;;;;;;;11.17;10.20;;;38.80;55.90;;;;;;5032955;28;20980;-71
2021/08/15 09:52:04;;;;;;;11.20;10.10;;;38.50;55.20;;;;;;5035061;28;20530;-71
2021/08/15 09:54:33;;;;;;;10.53;9.63;;;37.00;56.80;;;;;;5037073;28;20474;-70
2021/08/15 09:57:04;;;;;;;10.50;9.60;;;35.70;62.00;;;;;;5036574;28;20438;-71
2021/08/15 09:59:35;;;;;;;11.80;10.70;;;35.40;63.00;;;;;;5036503;28;20987;-71
2021/08/15 10:02:02;;;;;;;10.70;9.80;;;36.70;60.80;;;;;;5036559;28;20435;-71
2021/08/15 10:04:29;;;;;;;11.10;10.10;;;37.90;57.30;;;;;;5036555;28;20447;-71
2021/08/15 10:06:57;;;;;;;10.03;9.13;;;38.70;56.00;;;;;;5036315;28;21070;-71
2021/08/15 10:09:25;;;;;;;10.77;9.83;;;39.90;54.40;;;;;;5036525;28;20451;-71
2021/08/15 10:11:53;;;;;;;10.47;9.67;;;40.50;51.90;;;;;;5036320;28;20932;-71
2021/08/15 10:14:21;;;;;;;10.70;9.90;;;40.80;52.70;;;;;;5036493;28;20449;-71
2021/08/15 10:16:53;;;;;;;10.70;9.70;;;40.00;50.80;;;;;;5036169;28;20459;-71
2021/08/15 10:19:29;;;;;;;10.43;9.47;;;39.80;51.40;;;;;;5036282;28;20449;-71
2021/08/15 10:21:58;;;;;;;9.67;8.87;;;40.60;50.70;;;;;;5036375;28;20445;-71
2021/08/15 10:24:41;;;;;;;11.37;10.43;;;39.40;51.30;;;;;;5036347;28;20497;-71
2021/08/15 10:27:08;;;;;;;10.40;9.50;;;37.60;54.30;;;;;;5035996;28;20561;-71
2021/08/15 10:29:44;;;;;;;10.57;9.63;;;36.40;56.70;;;;;;5036044;28;20502;-70
2021/08/15 10:32:19;;;;;;;10.00;9.10;;;35.10;59.80;;;;;;5036162;28;20443;-70
2021/08/15 10:35:13;;;;;;;10.13;9.13;;;34.50;63.60;;;;;;5036118;28;20803;-70
2021/08/15 10:37:40;;;;;;;10.00;9.10;;;33.50;65.40;;;;;;5036240;28;20465;-70
2021/08/15 10:40:08;;;;;;;9.93;9.13;;;33.00;69.80;;;;;;5036051;28;20471;-70
2021/08/15 10:42:45;;;;;;;9.87;8.97;;;32.50;76.20;;;;;;5035893;28;20499;-70
2021/08/15 10:45:20;;;;;;;10.10;9.10;;;32.20;78.60;;;;;;5036026;28;20451;-70
2021/08/15 10:48:23;;;;;;;10.40;9.40;;;32.00;76.60;;;;;;5035618;28;20527;-70
2021/08/15 10:50:52;;;;;;;10.60;9.60;;;32.20;80.70;;;;;;5036303;28;20467;-71
2021/08/15 10:53:38;;;;;;;9.07;8.27;;;33.20;77.80;;;;;;5035604;28;20534;-70
2021/08/15 10:56:07;;;;;;;9.63;8.77;;;33.80;73.20;;;;;;5035516;28;20438;-71
2021/08/15 10:58:36;;;;;;;10.00;9.10;;;34.10;74.80;;;;;;5035489;28;20475;-70
2021/08/15 11:01:05;;;;;;;9.67;8.80;;;33.90;71.20;;;;;;5035790;28;20841;-70
2021/08/15 11:03:56;;;;;;;10.33;9.00;;;33.00;71.40;;;;;;5034995;28;20973;-70
2021/08/15 11:06:48;;;;;;;10.00;9.00;;;32.20;75.20;;;;;;5024877;28;20578;-70
2021/08/15 11:09:16;;;;;;;9.80;8.83;;;31.70;77.90;;;;;;5035458;28;20840;-70
2021/08/15 11:12:06;;;;;;;10.83;9.77;;;31.30;82.80;;;;;;5035446;28;20451;-70
2021/08/15 11:14:33;;;;;;;10.67;9.67;;;30.70;86.60;;;;;;5035318;28;20848;-70
2021/08/15 11:17:24;;;;;;;11.33;10.33;;;30.20;90.40;;;;;;5035095;28;20534;-70
2021/08/15 11:19:51;;;;;;;11.10;10.00;;;29.60;92.10;;;;;;5031067;28;20481;-70
2021/08/15 11:22:30;;;;;;;10.63;9.53;;;29.30;92.70;;;;;;5035318;28;20813;-70
2021/08/15 11:25:00;;;;;;;9.57;8.67;;;29.70;92.50;;;;;;5034985;28;20442;-70
2021/08/15 11:27:32;;;;;;;10.77;9.53;;;30.40;92.30;;;;;;5035119;28;20482;-70
2021/08/15 11:30:02;;;;;;;11.27;10.17;;;30.80;91.20;;;;;;5034802;28;21007;-70
2021/08/15 11:32:33;;;;;;;11.17;9.40;;;30.90;88.20;;;;;;5034797;28;20447;-70
2021/08/15 11:35:04;;;;;;;10.43;9.43;;;30.60;90.40;;;;;;5034775;28;20439;-70
2021/08/15 11:37:33;;;;;;;10.60;9.57;;;30.30;90.50;;;;;;5035017;28;20522;-70
2021/08/15 11:40:15;;;;;;;9.93;8.93;;;29.90;92.80;;;;;;5034826;28;20463;-70
2021/08/15 11:42:43;;;;;;;9.73;8.77;;;29.70;93.10;;;;;;5034643;28;20972;-70
2021/08/15 11:45:11;;;;;;;11.00;9.90;;;29.60;93.50;;;;;;5034575;28;20457;-70
2021/08/15 11:47:40;;;;;;;9.53;8.70;;;29.50;93.50;;;;;;5034633;28;20491;-69
2021/08/15 11:50:16;;;;;;;10.67;9.60;;;29.00;94.10;;;;;;5034666;28;20561;-70
2021/08/15 11:52:44;;;;;;;10.67;9.57;;;28.70;95.90;;;;;;5034812;28;20508;-70
2021/08/15 11:55:20;;;;;;;11.07;9.97;;;28.30;97.30;;;;;;5034387;28;20443;-71
2021/08/15 11:57:49;;;;;;;10.90;9.80;;;27.80;99.40;;;;;;5034562;28;20438;-70
2021/08/15 12:00:16;;;;;;;11.90;10.60;;;27.50;99.90;;;;;;5034698;28;20471;-70
2021/08/15 12:03:08;;;;;;;11.77;10.57;;;27.40;99.90;;;;;;5034486;28;20526;-70
2021/08/15 12:05:37;;;;;;;11.70;10.60;;;27.20;99.90;;;;;;5034311;28;20447;-70
2021/08/15 12:08:09;;;;;;;11.30;10.20;;;27.10;99.90;;;;;;5034333;28;20485;-71
2021/08/15 12:10:44;;;;;;;11.17;9.97;;;27.10;99.90;;;;;;5034472;28;20553;-70
2021/08/15 12:13:20;;;;;;;11.10;10.00;;;27.10;99.90;;;;;;5033992;28;20447;-70
2021/08/15 12:15:50;;;;;;;10.97;9.80;;;27.20;99.90;;;;;;5032774;28;20959;-71
2021/08/15 12:18:29;;;;;;;11.13;10.03;;;27.30;99.90;;;;;;5034102;28;20949;-70
2021/08/15 12:20:57;;;;;;;11.50;10.30;;;27.20;99.90;;;;;;5033949;28;20466;-70
2021/08/15 12:23:24;;;;;;;10.60;9.60;;;27.20;99.90;;;;;;5033859;28;20451;-70
2021/08/15 12:26:05;;;;;;;11.30;10.17;;;27.20;99.90;;;;;;5033845;28;20465;-70
2021/08/15 12:28:32;;;;;;;12.67;11.37;;;27.20;99.90;;;;;;5034080;28;20470;-71
2021/08/15 12:31:19;;;;;;;15.87;13.80;;;27.30;99.90;;;;;;5033632;28;20553;-71
2021/08/15 12:33:48;;;;;;;12.60;11.40;;;27.40;99.90;;;;;;5033771;28;20933;-71
2021/08/15 12:36:19;;;;;;;12.67;11.37;;;27.40;99.90;;;;;;5034008;28;20813;-71
2021/08/15 12:38:46;;;;;;;12.70;11.40;;;27.30;99.90;;;;;;5033705;28;20438;-71